Detall de PIREP

Printer-friendly versionPDF version

[2016/11/12 11:34:00]
Flight IATA:CT2210
Pilot Number:012
Company ICAO:CAT
Aircraft Type:A320/E
PAX:150
Departing Airport: LFMP
Destination Airport: LFPG
Alternate Airport:EBBR
Online: VATSIM
Route:FJR UT24 GAI UT186 PERIG UY156 FOUCO UT181 POI UT182 KEPER
Flight Level:F360
No Slew and time accel
No pause
Crash detect
Detect pilot in Cockpit between each 30 and 45 minutes
11:34 Zero fuel Weight: 120886 Lbs, Fuel Weight: 16968 Lbs
11:34 VATSIM:LFMP 121100Z AUTO 28006KT 240V360 CAVOK 15/05 Q1021 NOSIG
11:34 VATSIM:LFPG 121100Z 15008KT 110V190 8000 NSC 04/01 Q1021 NOSIG
11:35 Parking Brakes off
11:38 Take-off
11:38 Take off Weight: 137309 Lbs
11:38 Wind: 294º @ 006 Knots Heading: 327º
11:38 POS N42º 44´ 53´´ E002º 52´ 00´´
11:38 Flaps:3 at 161 Knots
11:38 Gear Up: 164 Knots
11:39 Flaps:2 at 189 Knots
11:39 Flaps:1 at 200 Knots
11:39 Flaps:0 at 209 Knots
11:53 Wind:333º@048 Knots Heading: 264º Ground Speed: 438 Knots Altitude 33001 ft
11:55 TOC
11:55 Fuel Weight: 12533 Lb
12:08 Wind:319º@022 Knots Heading: 331º Ground Speed: 415 Knots Altitude 36243 ft
12:23 Wind:297º@055 Knots Heading: 344º Ground Speed: 404 Knots Altitude 36200 ft
12:37 TOD
12:37 Fuel Weight: 8746 Lb
12:38 Wind:284º@049 Knots Heading: 344º Ground Speed: 409 Knots Altitude 34944 ft
12:53 Wind:244º@017 Knots Heading: 023º Ground Speed: 322 Knots Altitude 9416 ft
12:58 Flaps:1 at 197 Knots
12:58 Flaps:3 at 190 Knots
13:01 Flaps:4 at 169 Knots
13:01 Gear Down: 169 Knots
13:03 Flaps:5 at 180 Knots
13:05 TouchDown:Rate -156 ft/min Speed: 128 Knots
13:05 VATSIM:LFPG 121230Z 15008KT 110V170 9000 NSC 05/01 Q1021 NOSIG
13:05 Land
13:05 Wind:140º@008 Knots
13:05 Heading: 092º
13:05 Flight Duration: 01:27
13:05 Landing Weight: 127475 Lbs
13:05 POS N49º 01´ 33´´ E002º 33´ 00´´
13:09 Parking brakes on
13:09 Block to Block Duration: 01:34
13:09 Final Fuel: 6192 Lbls
13:09 Spent Fuel: 10776 Lbls
13:09 Flight Length: 531 NM
13:09 TOD Land Length: 142 NM

Exportar CSV

Powered by Drupal - Modified by Danger4k